createdAt,value
2019-03-01T00:01:22.343Z,11.67
2019-03-01T00:05:17.284Z,12.00
2019-03-01T00:09:20.928Z,11.23
2019-03-01T00:13:13.028Z,12.07
2019-03-01T00:16:54.535Z,12.50
2019-03-01T00:20:52.095Z,13.27
2019-03-01T00:24:47.163Z,12.27
2019-03-01T00:28:38.101Z,13.60
2019-03-01T00:32:21.697Z,14.30
2019-03-01T00:36:20.431Z,14.73
2019-03-01T00:39:45.905Z,14.77
2019-03-01T00:43:46.373Z,14.87
2019-03-01T00:47:06.076Z,16.77
2019-03-01T00:50:14.873Z,18.50
2019-03-01T00:53:23.526Z,18.33
2019-03-01T00:56:32.209Z,18.90
2019-03-01T00:59:40.936Z,19.43
2019-03-01T01:02:49.782Z,18.03
2019-03-01T01:05:58.555Z,19.40
2019-03-01T01:09:08.833Z,19.57
2019-03-01T01:12:17.359Z,19.57
2019-03-01T01:15:25.916Z,20.10
2019-03-01T01:18:34.734Z,19.30
2019-03-01T01:21:42.068Z,19.83
2019-03-01T01:24:50.809Z,18.27
2019-03-01T01:27:59.610Z,18.27
2019-03-01T01:31:08.812Z,18.47
2019-03-01T01:34:17.611Z,18.60
2019-03-01T01:37:27.995Z,18.67
2019-03-01T01:40:35.474Z,19.13
2019-03-01T01:43:44.296Z,18.80
2019-03-01T01:46:53.137Z,19.90
2019-03-01T01:50:01.138Z,17.73
2019-03-01T01:53:09.810Z,18.87
2019-03-01T01:56:28.710Z,21.43
2019-03-01T01:59:37.392Z,19.70
2019-03-01T02:02:44.750Z,19.27
2019-03-01T02:05:52.025Z,21.13
2019-03-01T02:09:00.786Z,19.60
2019-03-01T02:12:09.474Z,20.20
2019-03-01T02:15:18.204Z,19.83
2019-03-01T02:18:26.865Z,20.47
2019-03-01T02:21:35.670Z,19.63
2019-03-01T02:24:44.164Z,21.03
2019-03-01T02:27:52.834Z,22.63
2019-03-01T02:31:02.991Z,20.40
2019-03-01T02:34:13.433Z,20.80
2019-03-01T02:37:22.109Z,20.77
2019-03-01T02:40:30.890Z,19.17
2019-03-01T02:43:39.557Z,20.83
2019-03-01T02:46:59.490Z,21.47
2019-03-01T02:50:09.593Z,20.47
2019-03-01T02:53:18.328Z,21.00
2019-03-01T02:56:25.786Z,21.33
2019-03-01T02:59:34.604Z,20.47
2019-03-01T03:02:43.470Z,20.40
2019-03-01T03:06:06.430Z,20.60
2019-03-01T03:09:34.672Z,22.17
2019-03-01T03:12:57.875Z,22.67
2019-03-01T03:16:06.877Z,21.77
2019-03-01T03:19:18.692Z,22.50
2019-03-01T03:22:27.549Z,23.30
2019-03-01T03:25:37.835Z,21.20
2019-03-01T03:28:46.901Z,21.60
2019-03-01T03:31:55.737Z,23.30
2019-03-01T03:35:04.722Z,22.23
2019-03-01T03:38:13.503Z,20.87
2019-03-01T03:41:22.103Z,22.60
2019-03-01T03:44:30.646Z,22.53
2019-03-01T03:47:39.567Z,22.33
2019-03-01T03:50:48.212Z,23.07
2019-03-01T03:53:56.849Z,21.20
2019-03-01T03:57:05.576Z,21.90
2019-03-01T04:00:24.621Z,22.73
2019-03-01T04:03:33.315Z,23.07
2019-03-01T04:06:41.857Z,22.63
2019-03-01T04:09:50.815Z,22.73
2019-03-01T04:12:59.454Z,22.93
2019-03-01T04:16:09.582Z,22.63
2019-03-01T04:19:20.158Z,22.63
2019-03-01T04:22:29.064Z,20.93
2019-03-01T04:25:37.619Z,20.53
2019-03-01T04:28:46.336Z,19.70
2019-03-01T04:31:55.165Z,20.83
2019-03-01T04:35:03.825Z,18.57
2019-03-01T04:38:12.655Z,20.13
2019-03-01T04:41:21.989Z,17.83
2019-03-01T04:44:30.709Z,16.53
2019-03-01T04:47:39.430Z,17.77
2019-03-01T04:50:58.707Z,15.37
2019-03-01T04:54:14.172Z,15.63
2019-03-01T04:57:23.267Z,15.80
2019-03-01T05:00:32.029Z,15.33
2019-03-01T05:03:40.769Z,14.33
2019-03-01T05:06:49.410Z,15.17
2019-03-01T05:09:58.157Z,13.30
2019-03-01T05:13:06.827Z,14.17
2019-03-01T05:16:15.446Z,12.63
2019-03-01T05:19:24.138Z,13.10
2019-03-01T05:22:58.073Z,13.20
2019-03-01T05:26:06.629Z,13.50
2019-03-01T05:29:15.395Z,13.40
2019-03-01T05:32:23.908Z,15.97
2019-03-01T05:35:32.581Z,14.40
2019-03-01T05:38:41.262Z,14.90
2019-03-01T05:41:49.890Z,14.00
2019-03-01T05:45:00.440Z,14.20
2019-03-01T05:48:19.263Z,12.87
2019-03-01T05:51:38.373Z,13.20
2019-03-01T05:54:47.039Z,11.97
2019-03-01T05:58:34.520Z,11.37
2019-03-01T06:01:58.032Z,11.90
2019-03-01T06:05:43.419Z,11.20
2019-03-01T06:09:34.627Z,11.30
2019-03-01T06:14:01.898Z,11.50
2019-03-01T06:17:59.061Z,11.00
2019-03-01T06:21:57.456Z,11.03
2019-03-01T06:25:46.750Z,10.93
2019-03-01T06:29:43.058Z,10.17
2019-03-01T06:33:28.139Z,8.87
2019-03-01T06:37:49.715Z,10.27
2019-03-01T06:41:57.416Z,9.60
2019-03-01T06:46:23.364Z,9.47
2019-03-01T06:49:53.537Z,8.93
2019-03-01T06:53:20.316Z,9.57
2019-03-01T06:56:28.839Z,8.80
2019-03-01T06:59:37.465Z,8.80
2019-03-01T07:02:47.145Z,9.23
2019-03-01T07:06:07.701Z,8.17
2019-03-01T07:09:16.531Z,8.33
2019-03-01T07:12:25.410Z,9.03
2019-03-01T07:15:34.381Z,8.93
2019-03-01T07:18:43.044Z,8.13
2019-03-01T07:21:51.649Z,8.83
2019-03-01T07:25:00.329Z,9.07
2019-03-01T07:28:10.220Z,9.37
2019-03-01T07:31:31.267Z,8.83
2019-03-01T07:34:50.039Z,9.60
2019-03-01T07:37:58.655Z,8.47
2019-03-01T07:41:07.326Z,8.23
2019-03-01T07:44:15.871Z,7.37
2019-03-01T07:47:24.467Z,7.50
2019-03-01T07:50:33.397Z,6.00
2019-03-01T07:53:42.199Z,3.37
2019-03-01T07:56:51.470Z,3.13
2019-03-01T08:00:00.065Z,2.80
2019-03-01T08:03:11.851Z,3.43
2019-03-01T08:06:24.639Z,3.13
2019-03-01T08:09:34.227Z,3.37
2019-03-01T08:12:43.693Z,2.20
2019-03-01T08:15:52.299Z,2.20
2019-03-01T08:19:00.997Z,2.97
2019-03-01T08:22:09.630Z,3.40
2019-03-01T08:25:22.644Z,2.90
2019-03-01T08:28:28.474Z,3.90
2019-03-01T08:31:37.059Z,3.00
2019-03-01T08:34:45.690Z,3.53
2019-03-01T08:38:04.555Z,3.80
2019-03-01T08:41:14.994Z,4.40
2019-03-01T08:44:24.238Z,4.80
2019-03-01T08:47:43.213Z,4.47
2019-03-01T08:50:52.997Z,4.17
2019-03-01T08:54:01.631Z,3.50
2019-03-01T08:57:09.970Z,2.67
2019-03-01T09:00:31.350Z,2.77
2019-03-01T09:03:46.139Z,3.47
2019-03-01T09:07:05.030Z,3.40
2019-03-01T09:10:15.600Z,2.70
2019-03-01T09:13:24.168Z,2.77
2019-03-01T09:16:32.862Z,3.33
2019-03-01T09:19:41.529Z,2.73
2019-03-01T09:22:50.036Z,3.37
2019-03-01T09:25:58.796Z,2.93
2019-03-01T09:29:07.439Z,2.97
2019-03-01T09:32:16.072Z,3.47
2019-03-01T09:35:33.052Z,3.07
2019-03-01T09:38:42.763Z,3.40
2019-03-01T09:41:51.993Z,3.60
2019-03-01T09:45:13.630Z,3.77
2019-03-01T09:48:31.773Z,4.43
2019-03-01T09:51:43.662Z,3.87
2019-03-01T09:54:52.534Z,4.40
2019-03-01T09:58:01.085Z,3.90
2019-03-01T10:01:14.686Z,4.60
2019-03-01T10:04:23.336Z,4.80
2019-03-01T10:07:32.041Z,4.30
2019-03-01T10:10:42.062Z,3.40
2019-03-01T10:13:50.681Z,3.47
2019-03-01T10:17:09.563Z,2.90
2019-03-01T10:20:18.171Z,3.20
2019-03-01T10:23:26.824Z,2.70
2019-03-01T10:26:33.902Z,2.67
2019-03-01T10:29:42.692Z,2.47
2019-03-01T10:32:51.217Z,1.90
2019-03-01T10:35:59.843Z,2.13
2019-03-01T10:39:15.485Z,2.27
2019-03-01T10:42:24.047Z,1.97
2019-03-01T10:45:32.862Z,1.70
2019-03-01T10:48:41.466Z,1.60
2019-03-01T10:51:50.158Z,1.40
2019-03-01T10:55:11.895Z,1.70
2019-03-01T10:58:20.544Z,1.57
2019-03-01T11:01:29.092Z,1.40
2019-03-01T11:04:36.125Z,1.53
2019-03-01T11:07:44.759Z,1.83
2019-03-01T11:11:03.768Z,1.50
2019-03-01T11:14:12.349Z,2.07
2019-03-01T11:17:21.047Z,1.73
2019-03-01T11:20:29.830Z,2.27
2019-03-01T11:23:38.443Z,1.90
2019-03-01T11:26:47.080Z,2.17
2019-03-01T11:29:56.807Z,2.07
2019-03-01T11:33:15.757Z,1.83
2019-03-01T11:36:24.356Z,1.70
2019-03-01T11:39:33.106Z,2.10
2019-03-01T11:42:41.779Z,2.30
2019-03-01T11:45:50.438Z,2.20
2019-03-01T11:49:00.116Z,2.17
2019-03-01T11:52:19.018Z,2.33
2019-03-01T11:55:27.713Z,2.50
2019-03-01T11:58:36.351Z,2.17
2019-03-01T12:01:45.022Z,1.70
2019-03-01T12:04:53.746Z,2.20
2019-03-01T12:08:02.372Z,2.07
2019-03-01T12:11:11.349Z,1.90
2019-03-01T12:14:19.995Z,2.23
2019-03-01T12:17:28.592Z,1.87
2019-03-01T12:20:37.209Z,2.33
2019-03-01T12:23:55.993Z,1.80
2019-03-01T12:27:04.671Z,2.13
2019-03-01T12:30:16.647Z,2.30
2019-03-01T12:33:31.373Z,1.93
2019-03-01T12:36:39.883Z,2.27
2019-03-01T12:39:48.514Z,2.27
2019-03-01T12:43:07.707Z,1.77
2019-03-01T12:46:18.051Z,1.70
2019-03-01T12:49:26.827Z,1.77
2019-03-01T12:52:36.528Z,3.23
2019-03-01T12:55:45.296Z,2.50
2019-03-01T12:58:53.896Z,2.03
2019-03-01T13:02:02.571Z,2.10
2019-03-01T13:05:21.436Z,2.67
2019-03-01T13:08:30.029Z,1.67
2019-03-01T13:11:38.649Z,1.80
2019-03-01T13:14:47.275Z,2.03
2019-03-01T13:17:55.893Z,2.43
2019-03-01T13:21:04.548Z,2.10
2019-03-01T13:24:16.369Z,2.43
2019-03-01T13:27:23.284Z,2.67
2019-03-01T13:30:32.491Z,2.20
2019-03-01T13:33:42.119Z,2.07
2019-03-01T13:36:50.699Z,2.57
2019-03-01T13:39:59.309Z,2.10
2019-03-01T13:43:08.140Z,2.27
2019-03-01T13:46:16.761Z,2.53
2019-03-01T13:49:26.809Z,2.37
2019-03-01T13:52:35.830Z,1.93
2019-03-01T13:55:46.023Z,2.60
2019-03-01T13:59:09.563Z,2.67
2019-03-01T14:02:18.183Z,2.47
2019-03-01T14:05:26.783Z,2.40
2019-03-01T14:08:37.404Z,2.40
2019-03-01T14:11:46.003Z,2.47
2019-03-01T14:14:54.612Z,2.17
2019-03-01T14:18:03.270Z,1.97
2019-03-01T14:21:13.734Z,2.97
2019-03-01T14:24:22.379Z,2.67
2019-03-01T14:27:33.060Z,2.73
2019-03-01T14:30:41.655Z,2.50
2019-03-01T14:33:51.618Z,2.33
2019-03-01T14:37:10.847Z,2.77
2019-03-01T14:40:22.472Z,2.27
2019-03-01T14:43:29.934Z,2.13
2019-03-01T14:46:38.763Z,2.27
2019-03-01T14:49:47.472Z,2.30
2019-03-01T14:52:58.455Z,2.17
2019-03-01T14:56:21.533Z,2.27
2019-03-01T14:59:59.508Z,2.57
2019-03-01T15:03:37.203Z,2.63
2019-03-01T15:06:45.771Z,2.60
2019-03-01T15:09:57.006Z,2.10
2019-03-01T15:13:05.320Z,2.70
2019-03-01T15:16:14.026Z,2.97
2019-03-01T15:19:23.288Z,2.67
2019-03-01T15:23:04.123Z,2.20
2019-03-01T15:26:13.635Z,2.30
2019-03-01T15:29:22.380Z,2.73
2019-03-01T15:32:31.204Z,2.60
2019-03-01T15:35:41.096Z,2.60
2019-03-01T15:38:49.742Z,2.67
2019-03-01T15:41:58.380Z,2.33
2019-03-01T15:45:08.642Z,2.77
2019-03-01T15:48:17.171Z,2.10
2019-03-01T15:51:38.101Z,2.80
2019-03-01T15:54:46.319Z,2.37
2019-03-01T15:57:56.414Z,2.53
2019-03-01T16:01:10.940Z,2.57
2019-03-01T16:04:30.491Z,2.90
2019-03-01T16:07:40.125Z,2.93
2019-03-01T16:10:48.874Z,3.47
2019-03-01T16:13:57.545Z,2.83
2019-03-01T16:17:06.102Z,3.00
2019-03-01T16:20:16.793Z,2.90
2019-03-01T16:23:27.474Z,3.30
2019-03-01T16:26:36.390Z,2.53
2019-03-01T16:29:46.070Z,2.80
2019-03-01T16:32:54.669Z,2.27
2019-03-01T16:36:05.074Z,2.37
2019-03-01T16:39:16.593Z,2.37
2019-03-01T16:42:38.660Z,2.43
2019-03-01T16:45:46.560Z,3.30
2019-03-01T16:49:05.368Z,3.10
2019-03-01T16:52:14.002Z,2.73
2019-03-01T16:55:24.361Z,3.43
2019-03-01T16:58:31.741Z,3.10
2019-03-01T17:01:40.799Z,2.97
2019-03-01T17:05:03.574Z,2.90
2019-03-01T17:08:10.211Z,6.50
2019-03-01T17:11:21.855Z,8.77
2019-03-01T17:14:30.506Z,3.90
2019-03-01T17:17:39.161Z,2.57
2019-03-01T17:20:47.789Z,2.67
2019-03-01T17:23:56.410Z,3.30
2019-03-01T17:27:15.508Z,2.67
2019-03-01T17:30:24.631Z,2.17
2019-03-01T17:33:45.031Z,29.27
2019-03-01T17:36:54.664Z,19.43
2019-03-01T17:40:03.413Z,30.07
2019-03-01T17:43:12.043Z,6.63
2019-03-01T17:46:21.830Z,3.50
2019-03-01T17:49:32.916Z,3.97
2019-03-01T17:52:43.854Z,6.83
2019-03-01T17:55:52.570Z,4.93
2019-03-01T17:59:01.239Z,3.30
2019-03-01T18:02:12.151Z,2.50
2019-03-01T18:05:20.107Z,2.30
2019-03-01T18:08:39.713Z,2.80
2019-03-01T18:11:49.231Z,2.43
2019-03-01T18:14:57.723Z,2.60
2019-03-01T18:18:08.968Z,2.80
2019-03-01T18:21:15.943Z,2.70
2019-03-01T18:24:22.952Z,3.00
2019-03-01T18:27:31.688Z,3.23
2019-03-01T18:30:40.302Z,3.30
2019-03-01T18:33:48.927Z,3.30
2019-03-01T18:36:58.640Z,2.20
2019-03-01T18:40:08.257Z,2.47
2019-03-01T18:43:18.135Z,2.37
2019-03-01T18:46:26.922Z,2.40
2019-03-01T18:49:35.558Z,2.47
2019-03-01T18:52:44.206Z,2.37
2019-03-01T18:56:02.922Z,2.83
2019-03-01T18:59:11.576Z,2.43
2019-03-01T19:02:20.114Z,1.87
2019-03-01T19:05:28.775Z,2.57
2019-03-01T19:08:39.599Z,2.73
2019-03-01T19:11:47.672Z,2.67
2019-03-01T19:14:56.309Z,2.63
2019-03-01T19:18:16.915Z,3.00
2019-03-01T19:21:42.059Z,2.30
2019-03-01T19:24:50.811Z,2.30
2019-03-01T19:27:59.497Z,2.73
2019-03-01T19:31:08.029Z,2.93
2019-03-01T19:34:17.021Z,2.67
2019-03-01T19:37:26.583Z,2.13
2019-03-01T19:40:47.134Z,2.60
2019-03-01T19:43:57.752Z,2.23
2019-03-01T19:47:06.073Z,2.50
2019-03-01T19:50:21.684Z,2.87
2019-03-01T19:53:29.562Z,2.10
2019-03-01T19:56:38.281Z,2.70
2019-03-01T19:59:49.648Z,2.40
2019-03-01T20:02:57.482Z,3.45
2019-03-01T20:06:08.077Z,2.50
2019-03-01T20:09:15.450Z,3.30
2019-03-01T20:12:24.188Z,3.03
2019-03-01T20:15:34.651Z,2.23
2019-03-01T20:18:45.004Z,2.47
2019-03-01T20:21:55.013Z,2.37
2019-03-01T20:25:03.955Z,2.47
2019-03-01T20:28:15.331Z,2.33
2019-03-01T20:31:22.980Z,2.30
2019-03-01T20:34:34.846Z,3.92
2019-03-01T20:37:42.646Z,3.75
2019-03-01T20:40:52.048Z,3.17
2019-03-01T20:44:01.175Z,3.47
2019-03-01T20:47:10.031Z,3.83
2019-03-01T20:50:29.196Z,3.20
2019-03-01T20:53:49.496Z,3.00
2019-03-01T20:56:58.602Z,3.87
2019-03-01T21:00:10.319Z,4.10
2019-03-01T21:03:18.906Z,3.40
2019-03-01T21:06:27.665Z,3.10
2019-03-01T21:09:37.728Z,3.40
2019-03-01T21:12:46.758Z,3.13
2019-03-01T21:15:55.311Z,3.17
2019-03-01T21:19:05.727Z,3.00
2019-03-01T21:22:24.516Z,3.67
2019-03-01T21:25:35.817Z,2.83
2019-03-01T21:28:43.453Z,2.60
2019-03-01T21:31:52.812Z,2.50
2019-03-01T21:35:01.459Z,2.70
2019-03-01T21:38:10.663Z,2.33
2019-03-01T21:41:20.382Z,3.83
2019-03-01T21:44:28.971Z,5.83
2019-03-01T21:47:37.654Z,4.20
2019-03-01T21:50:56.448Z,3.30
2019-03-01T21:54:05.005Z,5.40
2019-03-01T21:57:13.684Z,3.17
2019-03-01T22:00:25.477Z,3.33
2019-03-01T22:03:34.017Z,5.43
2019-03-01T22:06:42.575Z,4.10
2019-03-01T22:09:51.386Z,4.43
2019-03-01T22:13:10.105Z,2.80
2019-03-01T22:16:18.806Z,2.33
2019-03-01T22:19:30.576Z,2.70
2019-03-01T22:22:38.776Z,2.53
2019-03-01T22:25:47.569Z,2.73
2019-03-01T22:29:08.944Z,2.10
2019-03-01T22:32:16.771Z,2.03
2019-03-01T22:35:25.370Z,2.10
2019-03-01T22:38:37.695Z,2.20
2019-03-01T22:41:44.683Z,2.40
2019-03-01T22:44:53.344Z,2.30
2019-03-01T22:48:03.083Z,2.40
2019-03-01T22:51:14.485Z,2.30
2019-03-01T22:54:31.989Z,2.30
2019-03-01T22:57:40.537Z,2.20
2019-03-01T23:01:12.646Z,2.33
2019-03-01T23:04:31.663Z,2.87
2019-03-01T23:07:40.226Z,2.20
2019-03-01T23:10:49.031Z,1.97
2019-03-01T23:13:57.728Z,2.00
2019-03-01T23:17:06.751Z,2.60
2019-03-01T23:20:15.475Z,2.33
2019-03-01T23:23:24.844Z,1.97
2019-03-01T23:26:33.475Z,2.27
2019-03-01T23:29:41.993Z,2.33
2019-03-01T23:32:52.701Z,2.10
2019-03-01T23:36:12.013Z,1.97
2019-03-01T23:39:21.741Z,1.67
2019-03-01T23:42:30.884Z,1.80
2019-03-01T23:45:40.102Z,2.22
2019-03-01T23:48:49.072Z,2.03
2019-03-01T23:51:58.471Z,1.87
2019-03-01T23:55:08.448Z,1.80
2019-03-01T23:58:27.459Z,1.77
